Observations
| Time | Sensor | AQI | SAQ | Temp °C | Hum % | Pres Pa | CO μg/m³ | H₂S μg/m³ | NO μg/m³ | NO₂ μg/m³ | O₃ μg/m³ | SO₂ μg/m³ | CO₂e PPM | VOC PPM | PM1 μg/m³ | PM2.5 μg/m³ | PM4 μg/m³ | PM10 μg/m³ | TPS µm |
|---|---|---|---|---|---|---|---|---|---|---|---|---|---|---|---|---|---|---|---|
| Tuesday 11 August 2026 | |||||||||||||||||||
| 05:45 | Trim Market St | 2 | 12.5 | 75 | 47,887 | 0.38 | 0 | 3.89 | 11.62 | 30.29 | 0 | 1.43 | 3.31 | 6.33 | |||||
| 05:44 | Trim Patrick St | 1 | 11 | 82 | 38,460 | 0.39 | 0.94 | 4.11 | 22.47 | 8.07 | 0 | 2.86 | 6.48 | 7.12 | |||||
| 05:44 | Trim Market St | 2 | 12.5 | 75 | 47,869 | 0.38 | 0 | 3.84 | 11.2 | 29.16 | 0 | 2.14 | 3.79 | 6.93 | |||||
| 05:43 | Trim Patrick St | 1 | 11 | 82 | 38,460 | 0.39 | 0.63 | 4.1 | 21.47 | 8.12 | 0 | 5.43 | 8.56 | 9.42 | |||||
| 05:43 | Trim Market St | 2 | 12.5 | 75 | 47,838 | 0.37 | 0 | 3.86 | 11.72 | 30.24 | 0 | 2.14 | 3.79 | 6.93 | |||||
| 05:42 | Trim Patrick St | 1 | 11 | 82 | 38,460 | 0.38 | 1.2 | 4.14 | 21.8 | 7.86 | 0 | 4.57 | 8.56 | 9.42 | |||||
| 05:42 | Trim Market St | 2 | 12.5 | 75 | 47,807 | 0.38 | 0 | 3.89 | 13.04 | 25.1 | 0 | 2.14 | 4.74 | 7.53 | |||||
| 05:41 | Trim Patrick St | 1 | 11 | 82 | 38,460 | 0.39 | 1.2 | 4.14 | 20.87 | 8.45 | 0 | 5.43 | 9.26 | 10.18 | |||||
| 05:41 | Trim Market St | 2 | 12.5 | 75 | 47,757 | 0.38 | 0 | 3.86 | 11.04 | 37.06 | 0 | 1.43 | 4.74 | 8.13 | |||||
| 05:40 | Trim Patrick St | 1 | 11 | 82 | 38,460 | 0.39 | 1.07 | 4.13 | 22.8 | 7.1 | 0 | 4.57 | 7.18 | 7.9 | |||||
| 05:39 | Trim Patrick St | 1 | 11 | 82 | 38,460 | 0.39 | 0.81 | 4.17 | 21.78 | 8.92 | 0 | 4.57 | 9.27 | 10.19 | |||||
| 05:39 | Trim Market St | 2 | 12.5 | 75 | 47,596 | 0.38 | 0 | 3.83 | 11.4 | 30.77 | 0 | 2.14 | 2.35 | 4.54 | |||||
| 05:38 | Trim Patrick St | 1 | 11 | 82 | 38,460 | 0.39 | 0.76 | 4.16 | 20.85 | 7.55 | 0 | 4.57 | 7.87 | 8.66 | |||||
| 05:37 | Trim Patrick St | 1 | 11 | 82 | 38,460 | 0.38 | 0.81 | 4.12 | 22.45 | 6.51 | 0 | 3.71 | 6.48 | 7.13 | |||||
| 05:37 | Trim Market St | 2 | 12.5 | 75 | 47,541 | 0.38 | 0 | 3.81 | 11.4 | 29.4 | 0 | 2.85 | 3.31 | 5.74 | |||||
| 05:36 | Trim Patrick St | 1 | 11 | 82 | 38,460 | 0.39 | 1.28 | 4.05 | 22.81 | 6.59 | 0 | 5.43 | 8.57 | 9.43 | |||||
| 05:36 | Trim Market St | 2 | 12.5 | 75 | 47,504 | 0.38 | 0 | 3.89 | 12.46 | 28.98 | 0 | 2.14 | 3.31 | 5.74 | |||||
| 05:35 | Trim Patrick St | 1 | 11 | 82 | 38,460 | 0.4 | 0.86 | 4.05 | 23.9 | 5.96 | 0 | 4.57 | 8.57 | 9.43 | |||||
| 05:34 | Trim Patrick St | 1 | 11 | 82 | 38,460 | 0.39 | 0.63 | 4.02 | 22.12 | 6.74 | 0 | 5.43 | 9.27 | 10.19 | |||||
| 05:33 | Trim Patrick St | 1 | 11 | 82 | 38,460 | 0.4 | 1.51 | 3.96 | 24.63 | 5.22 | 0 | 4.57 | 8.58 | 9.44 | |||||